YXPM weather

Port Macquarie Hospital Helipad
Port Macquarie, New South Wales, Australia

Public forecast

Using degrees Celsius for public forecast. Weather courtesy of forecast.io.

METAR (pilot weather report)

Report is more than 6 hours old.

Closest report is Port Macquarie Airport, 1.4 nm (2.5 km) NW. Retrieved 2019/04/22 19:11 UTC (15 hours ago):

YPMQ 221911Z AUTO 24001KT 9999 // NCD 14/14 Q1025

TAF (pilot weather forecast)

Closest forecast is Taree Airport, 32.2 nm (59.6 km) SW. Retrieved 2019/04/23 08:03 UTC (2 hours ago):

TAF YTRE 230652Z 2308/2320 08005KT 9999 -SHRA SCT050 BECMG 2308/2310 VRB03KT 9999 -SHRA BKN030 PROB30 2315/2320 0500 FG BKN002